TAPA

Details ICAO TAPA (ANU)
Name Antigua - VC Bird Intl
Region Antigua and Barbuda
Timezone America/Antigua (UTC-4.0)
Plans Departing 436
Arriving 503
Stats Elevation 62 ft / 19 m (AMSL)
Location 17.136000° -61.793900°
Runways 1
Magnetic Variation 14.799° W
Sunrise 2019-05-25 09:34:42 UTC / 2019-05-25 05:34:42 Local
Sunset 2019-05-25 22:36:23 UTC / 2019-05-25 18:36:23 Local
Advertisement - Login to hide

Runways

ID Width Length Bearing (true/mag) Surface Threshold Overrun Markings Lighting
07 145 ft / 44 m 9,978 ft / 3,041 m 58.24° / 73.04° ASPHALT 1,640 ft / 500 m 0 ft / 0 m PREC-APP CENTERLINE EDGE THRESHOLD
25 145 ft / 44 m 9,978 ft / 3,041 m 238.25° / 253.05° ASPHALT 981 ft / 299 m 0 ft / 0 m PREC-APP CENTERLINE EDGE THRESHOLD

Map

Weather


0- 5 10 15 20 25 30 35+ Temperature / °C

Clouds and Precipitation
Forecast for 2019-05-25 06:00 UTC. Updated 5 hours ago

Ground ~20,000 ft ~40,000 ft Winds

METAR

TAPA 250800Z VRB01KT 9999 BKN017 SCT036 25/22 Q1013 NOSIG

TAF

TAF TAPA 250500Z 2506/2606 11009KT 9999 SCT018 PROB40 TEMPO 2512/2523 SHRA PROB30 TEMPO 2518/2522 TSRA FEW014CB BKN016

Frequencies

Ground 121.90 MHz VC Bird Ground
Approach 119.10 MHz VC Bird Approach
Tower 118.20 MHz VC Bird Tower
Recorded 114.50 MHz VC Bird ATIS
Warning: Do not use this data for real-world aviation or navigation. No guarantee of current accuracy is given.